Time;durP1;ratioP1;P1;durP2;ratioP2;P2;SDS_P1;SDS_P2;PMS_P1;PMS_P2;Temp;Humidity;BMP_temperature;BMP_pressure;BME280_temperature;BME280_humidity;BME280_pressure;Samples;Min_cycle;Max_cycle;Signal;HPM_P1;HPM_P2
2022/05/25 00:00:30;;;;;;;1.60;1.50;;;;;11.40;100663.00;;;;5023707;28;20225;-70
2022/05/25 00:03:16;;;;;;;1.70;1.60;;;;;11.30;100669.00;;;;5027644;28;20279;-71
2022/05/25 00:06:06;;;;;;;3.00;1.53;;;;;11.30;100662.00;;;;5025828;28;21070;-70
2022/05/25 00:08:56;;;;;;;2.10;1.80;;;;;11.20;100668.00;;;;5027342;28;20236;-70
2022/05/25 00:11:44;;;;;;;1.73;1.50;;;;;11.30;100667.00;;;;5031486;28;20237;-70
2022/05/25 00:14:30;;;;;;;6.00;1.70;;;;;11.20;100671.00;;;;5021019;28;20233;-70
2022/05/25 00:17:16;;;;;;;2.47;1.97;;;;;11.20;100667.00;;;;5027299;28;20237;-70
2022/05/25 00:20:03;;;;;;;1.77;1.60;;;;;11.20;100670.00;;;;5027890;28;20720;-70
2022/05/25 00:22:52;;;;;;;2.63;1.70;;;;;11.20;100667.00;;;;5027686;28;20240;-70
2022/05/25 00:25:40;;;;;;;5.70;1.60;;;;;11.10;100663.00;;;;5027488;28;20237;-70
2022/05/25 00:28:27;;;;;;;2.20;2.00;;;;;11.10;100666.00;;;;5020263;28;20745;-68
2022/05/25 00:31:14;;;;;;;1.53;1.43;;;;;11.10;100669.00;;;;5026335;28;20233;-70
2022/05/25 00:34:00;;;;;;;4.90;1.80;;;;;11.00;100671.00;;;;5026667;28;20284;-70
2022/05/25 00:36:46;;;;;;;1.87;1.50;;;;;11.00;100672.00;;;;5027025;28;20328;-69
2022/05/25 00:39:33;;;;;;;1.80;1.60;;;;;11.00;100673.00;;;;5027519;28;20236;-71
2022/05/25 00:42:20;;;;;;;1.67;1.30;;;;;11.00;100673.00;;;;5027139;28;20236;-70
2022/05/25 00:45:09;;;;;;;2.77;1.93;;;;;11.00;100679.00;;;;5027132;28;20268;-70
2022/05/25 00:47:55;;;;;;;2.40;1.60;;;;;10.90;100684.00;;;;5027048;28;20625;-70
2022/05/25 00:53:51;;;;;;;1.60;1.50;;;;;10.80;100666.00;;;;5017375;28;20290;-70
2022/05/25 00:56:42;;;;;;;2.10;1.70;;;;;10.70;100683.00;;;;5021400;28;20237;-70
2022/05/25 00:59:32;;;;;;;3.23;1.70;;;;;10.80;100686.00;;;;5018029;28;20229;-69
2022/05/25 01:02:19;;;;;;;2.70;1.60;;;;;10.70;100689.00;;;;5018878;28;20340;-69
2022/05/25 01:05:07;;;;;;;1.57;1.47;;;;;10.70;100694.00;;;;5013393;28;20381;-70
2022/05/25 01:08:04;;;;;;;2.73;1.80;;;;;10.60;100693.00;;;;5013645;28;20238;-70
2022/05/25 01:11:05;;;;;;;1.83;1.60;;;;;10.70;100689.00;;;;5012088;28;20217;-70
2022/05/25 01:13:59;;;;;;;2.53;1.60;;;;;10.60;100692.00;;;;5022771;28;20223;-70
2022/05/25 01:16:55;;;;;;;2.27;1.60;;;;;10.70;100688.00;;;;5022051;28;20233;-69
2022/05/25 01:20:00;;;;;;;2.27;1.63;;;;;10.60;100685.00;;;;5021489;28;20767;-68
2022/05/25 01:23:23;;;;;;;1.97;1.77;;;;;10.60;100688.00;;;;5021873;28;20311;-70
2022/05/25 01:26:27;;;;;;;4.73;2.03;;;;;10.60;100693.00;;;;5024679;28;20307;-69
2022/05/25 01:29:54;;;;;;;2.53;1.73;;;;;10.50;100704.00;;;;5025831;28;20325;-70
2022/05/25 01:33:06;;;;;;;2.10;1.90;;;;;10.50;100721.00;;;;4964316;28;20237;-71
2022/05/25 01:36:01;;;;;;;2.10;1.80;;;;;10.50;100709.00;;;;4961157;28;20244;-70
2022/05/25 01:38:52;;;;;;;4.70;2.30;;;;;10.40;100714.00;;;;5021506;28;20303;-72
2022/05/25 01:41:43;;;;;;;2.63;2.10;;;;;10.40;100694.00;;;;5020680;28;20248;-70
2022/05/25 01:44:35;;;;;;;2.40;1.77;;;;;10.40;100712.00;;;;5019318;28;20231;-70
2022/05/25 01:47:24;;;;;;;2.50;2.30;;;;;10.30;100697.00;;;;5018056;28;20885;-69
2022/05/25 01:50:16;;;;;;;3.30;2.60;;;;;10.30;100708.00;;;;5030953;28;20221;-70
2022/05/25 01:53:07;;;;;;;2.30;2.10;;;;;10.30;100710.00;;;;5025094;28;20232;-70
2022/05/25 01:55:58;;;;;;;2.67;2.00;;;;;10.30;100710.00;;;;5025889;28;20619;-70
2022/05/25 01:58:47;;;;;;;2.23;1.80;;;;;10.30;100716.00;;;;5021011;28;20230;-70
2022/05/25 02:01:34;;;;;;;2.37;2.07;;;;;10.40;100717.00;;;;5018028;28;20712;-70
2022/05/25 02:04:19;;;;;;;3.53;2.47;;;;;10.30;100714.00;;;;5017763;28;20244;-70
2022/05/25 02:07:18;;;;;;;5.60;2.50;;;;;10.30;100719.00;;;;5025861;28;20368;-70
2022/05/25 02:10:17;;;;;;;3.00;2.37;;;;;10.30;100710.00;;;;5018686;28;20240;-70
2022/05/25 02:13:20;;;;;;;5.90;2.60;;;;;10.20;100712.00;;;;5012665;28;20231;-69
2022/05/25 02:16:22;;;;;;;4.70;2.60;;;;;10.20;100722.00;;;;5015301;28;20352;-68
2022/05/25 02:19:13;;;;;;;2.53;2.33;;;;;10.10;100723.00;;;;5009544;28;20228;-70
2022/05/25 02:22:07;;;;;;;3.17;2.50;;;;;10.10;100715.00;;;;5022916;28;20239;-70
2022/05/25 02:25:01;;;;;;;3.87;2.67;;;;;10.10;100723.00;;;;5025802;28;20301;-70
2022/05/25 02:27:51;;;;;;;4.27;2.47;;;;;10.00;100730.00;;;;5005704;28;20830;-69
2022/05/25 02:30:42;;;;;;;3.33;2.53;;;;;10.00;100724.00;;;;5000189;28;20239;-70
2022/05/25 02:33:31;;;;;;;3.23;2.37;;;;;10.00;100732.00;;;;4998823;28;20297;-69
2022/05/25 02:36:19;;;;;;;5.17;2.30;;;;;10.00;100724.00;;;;5005451;28;20255;-70
2022/05/25 02:39:06;;;;;;;3.13;2.40;;;;;10.00;100728.00;;;;5024702;28;20719;-69
2022/05/25 02:41:56;;;;;;;3.40;2.53;;;;;10.00;100730.00;;;;5016503;28;20302;-69
2022/05/25 02:44:43;;;;;;;3.00;2.30;;;;;9.90;100734.00;;;;4993565;28;20278;-70
2022/05/25 02:47:29;;;;;;;4.47;2.73;;;;;10.00;100730.00;;;;4989617;28;20355;-70
2022/05/25 02:50:15;;;;;;;3.80;2.73;;;;;9.90;100731.00;;;;5007269;28;20729;-70
2022/05/25 02:53:01;;;;;;;3.90;2.57;;;;;9.90;100745.00;;;;5007936;28;20225;-69
2022/05/25 02:55:48;;;;;;;5.33;2.67;;;;;9.90;100731.00;;;;4997509;28;20235;-69
2022/05/25 02:58:35;;;;;;;3.73;2.43;;;;;9.90;100745.00;;;;4999592;28;20235;-69
2022/05/25 03:01:22;;;;;;;2.53;2.17;;;;;9.90;100745.00;;;;4997757;28;20640;-70
2022/05/25 03:04:08;;;;;;;3.90;3.07;;;;;9.90;100737.00;;;;5005534;28;20234;-71
2022/05/25 03:06:55;;;;;;;4.83;2.47;;;;;9.80;100728.00;;;;5018412;28;20240;-70
2022/05/25 03:09:41;;;;;;;4.60;2.77;;;;;9.80;100740.00;;;;5021932;28;20245;-70
2022/05/25 03:12:28;;;;;;;3.77;2.60;;;;;9.80;100739.00;;;;5018053;28;20237;-70
2022/05/25 03:15:20;;;;;;;3.57;2.77;;;;;9.80;100744.00;;;;5024436;28;20313;-70
2022/05/25 03:18:07;;;;;;;3.07;2.43;;;;;9.80;100747.00;;;;5024463;28;20331;-70
2022/05/25 03:20:53;;;;;;;4.47;2.77;;;;;9.70;100754.00;;;;5024725;28;20245;-69
2022/05/25 03:23:40;;;;;;;5.27;2.87;;;;;9.70;100753.00;;;;5018889;28;20230;-69
2022/05/25 03:26:26;;;;;;;4.20;2.87;;;;;9.70;100754.00;;;;5023656;28;20233;-69
2022/05/25 03:29:14;;;;;;;4.07;2.60;;;;;9.70;100755.00;;;;5028397;28;20237;-70
2022/05/25 03:32:01;;;;;;;4.30;2.83;;;;;9.60;100760.00;;;;5028410;28;20234;-70
2022/05/25 03:34:48;;;;;;;4.23;2.80;;;;;9.60;100759.00;;;;5028257;28;20248;-70
2022/05/25 03:37:34;;;;;;;4.00;2.50;;;;;9.70;100754.00;;;;5022605;28;20668;-70
2022/05/25 03:40:21;;;;;;;3.33;2.33;;;;;9.70;100745.00;;;;5028190;28;20228;-69
2022/05/25 03:43:09;;;;;;;4.10;2.87;;;;;9.70;100744.00;;;;5028285;28;20228;-69
2022/05/25 03:45:55;;;;;;;3.10;2.57;;;;;9.70;100755.00;;;;5028438;28;20253;-69
2022/05/25 03:48:43;;;;;;;6.47;3.07;;;;;9.70;100768.00;;;;5028123;28;20615;-69
2022/05/25 03:51:29;;;;;;;4.10;2.80;;;;;9.70;100766.00;;;;5021198;28;20341;-71
2022/05/25 03:54:15;;;;;;;4.03;2.80;;;;;9.70;100769.00;;;;5027598;28;20230;-70
2022/05/25 03:57:02;;;;;;;4.13;2.80;;;;;9.70;100772.00;;;;5027827;28;20233;-69
2022/05/25 03:59:48;;;;;;;2.90;2.50;;;;;9.80;100767.00;;;;5025530;28;20236;-69
2022/05/25 04:02:36;;;;;;;3.60;2.63;;;;;9.80;100777.00;;;;5020224;28;20243;-69
2022/05/25 04:05:25;;;;;;;3.80;2.97;;;;;9.90;100781.00;;;;5019712;28;20243;-70
2022/05/25 04:08:12;;;;;;;3.83;2.67;;;;;9.80;100780.00;;;;5025270;28;20284;-70
2022/05/25 04:10:58;;;;;;;4.60;2.87;;;;;9.90;100779.00;;;;5026725;28;20238;-71
2022/05/25 04:13:44;;;;;;;3.97;2.77;;;;;9.90;100789.00;;;;5027641;28;20240;-71
2022/05/25 04:16:31;;;;;;;4.83;2.73;;;;;9.90;100787.00;;;;5021079;28;20241;-71
2022/05/25 04:19:18;;;;;;;4.67;2.80;;;;;10.00;100780.00;;;;5026704;28;20232;-71
2022/05/25 04:22:06;;;;;;;3.73;2.73;;;;;10.00;100794.00;;;;5027926;28;20250;-69
2022/05/25 04:24:52;;;;;;;4.30;2.87;;;;;10.00;100793.00;;;;5019882;28;20265;-69
2022/05/25 04:27:40;;;;;;;4.40;2.63;;;;;10.10;100794.00;;;;5024446;28;20703;-69
2022/05/25 04:30:29;;;;;;;4.20;2.60;;;;;10.10;100787.00;;;;5020211;28;20315;-70
2022/05/25 04:33:16;;;;;;;3.90;2.70;;;;;10.20;100790.00;;;;5027362;28;20366;-69
2022/05/25 04:36:04;;;;;;;4.13;2.57;;;;;10.30;100782.00;;;;5027157;28;20239;-70
2022/05/25 04:38:51;;;;;;;6.37;3.27;;;;;10.40;100793.00;;;;5027831;28;20228;-70
2022/05/25 04:41:38;;;;;;;6.93;2.97;;;;;10.40;100800.00;;;;5022129;28;20300;-70
2022/05/25 04:44:24;;;;;;;3.63;2.50;;;;;10.30;100800.00;;;;5019514;28;20696;-70
2022/05/25 04:47:12;;;;;;;6.60;3.37;;;;;10.60;100800.00;;;;5027216;28;20280;-71
2022/05/25 04:49:59;;;;;;;5.57;2.47;;;;;10.60;100800.00;;;;5027257;28;20699;-70
2022/05/25 04:52:45;;;;;;;4.43;2.50;;;;;10.70;100803.00;;;;5026865;28;20307;-70
2022/05/25 04:58:39;;;;;;;4.37;2.90;;;;;10.80;100803.00;;;;5008857;28;20265;-70
2022/05/25 05:01:25;;;;;;;4.27;3.10;;;;;10.90;100812.00;;;;4999144;28;20882;-70
2022/05/25 05:04:17;;;;;;;5.70;2.90;;;;;11.00;100815.00;;;;5025440;28;20303;-70
2022/05/25 05:07:04;;;;;;;5.57;2.93;;;;;11.10;100820.00;;;;5026737;28;20288;-70
2022/05/25 05:09:51;;;;;;;4.20;2.73;;;;;11.20;100818.00;;;;5026699;28;20248;-70
2022/05/25 05:12:39;;;;;;;7.63;3.40;;;;;11.30;100813.00;;;;5005499;28;20238;-70
2022/05/25 05:15:26;;;;;;;5.17;3.70;;;;;11.40;100815.00;;;;4991188;28;20269;-70
2022/05/25 05:18:13;;;;;;;6.77;3.37;;;;;11.60;100818.00;;;;5022978;28;20252;-69
2022/05/25 05:20:59;;;;;;;6.60;4.17;;;;;11.70;100823.00;;;;5026512;28;20253;-70
2022/05/25 05:23:45;;;;;;;7.77;4.30;;;;;11.90;100823.00;;;;5018364;28;20240;-69
2022/05/25 05:26:32;;;;;;;5.97;3.67;;;;;11.90;100825.00;;;;5022033;28;20245;-70
2022/05/25 05:29:20;;;;;;;7.33;4.00;;;;;12.10;100832.00;;;;5026016;28;20300;-70
2022/05/25 05:32:06;;;;;;;5.03;3.60;;;;;12.20;100825.00;;;;5031375;28;20296;-72
2022/05/25 05:34:52;;;;;;;8.17;4.67;;;;;12.40;100824.00;;;;5026086;28;20369;-69
2022/05/25 05:37:42;;;;;;;7.83;5.03;;;;;12.50;100831.00;;;;5014091;28;20245;-69
2022/05/25 05:40:29;;;;;;;5.37;4.33;;;;;12.60;100828.00;;;;5026357;28;20233;-69
2022/05/25 05:43:15;;;;;;;6.67;4.37;;;;;12.60;100831.00;;;;5025675;28;20236;-70
2022/05/25 05:46:03;;;;;;;8.57;4.50;;;;;12.70;100833.00;;;;5025878;28;20244;-70
2022/05/25 05:48:51;;;;;;;9.90;4.70;;;;;12.70;100826.00;;;;5025516;28;20389;-70
2022/05/25 05:51:38;;;;;;;9.40;4.90;;;;;12.90;100816.00;;;;5020533;28;20245;-69
2022/05/25 05:54:24;;;;;;;8.30;4.70;;;;;12.90;100827.00;;;;5018276;28;20756;-69
2022/05/25 05:57:11;;;;;;;10.27;5.13;;;;;13.00;100836.00;;;;5025848;28;20237;-71
2022/05/25 05:59:57;;;;;;;9.70;4.40;;;;;13.00;100846.00;;;;5023182;28;20795;-70
2022/05/25 06:02:46;;;;;;;7.70;4.53;;;;;13.00;100843.00;;;;5025858;28;20241;-70
2022/05/25 06:05:33;;;;;;;11.20;4.13;;;;;13.10;100848.00;;;;5019114;28;20323;-70
2022/05/25 06:08:23;;;;;;;9.47;4.57;;;;;13.20;100848.00;;;;5025144;28;20224;-69
2022/05/25 06:11:09;;;;;;;6.43;3.90;;;;;13.10;100838.00;;;;5025060;28;20241;-70
2022/05/25 06:13:56;;;;;;;5.77;4.13;;;;;13.20;100848.00;;;;5028697;28;20311;-68
2022/05/25 06:19:47;;;;;;;6.33;4.27;;;;;13.40;100862.00;;;;5004206;28;20237;-70
2022/05/25 06:22:35;;;;;;;7.47;3.80;;;;;13.30;100836.00;;;;5011980;28;20237;-69
2022/05/25 06:25:21;;;;;;;7.23;4.07;;;;;13.40;100854.00;;;;5009560;28;20265;-69
2022/05/25 06:28:08;;;;;;;8.73;3.90;;;;;13.40;100853.00;;;;5002082;28;20238;-70
2022/05/25 06:30:54;;;;;;;5.93;3.60;;;;;13.50;100848.00;;;;5027004;28;20244;-70
2022/05/25 06:33:43;;;;;;;6.47;3.83;;;;;13.60;100854.00;;;;5029214;28;20237;-69
2022/05/25 06:36:31;;;;;;;5.83;3.40;;;;;13.60;100862.00;;;;5024105;28;22495;-69
2022/05/25 06:39:17;;;;;;;6.23;3.40;;;;;13.60;100861.00;;;;5028367;28;20232;-70
2022/05/25 06:42:04;;;;;;;7.63;3.20;;;;;13.70;100864.00;;;;5031451;28;20264;-70
2022/05/25 06:44:50;;;;;;;5.53;3.63;;;;;13.70;100856.00;;;;5032640;28;20233;-70
2022/05/25 06:47:37;;;;;;;3.73;2.90;;;;;13.90;100862.00;;;;5021270;28;20363;-70
2022/05/25 06:50:25;;;;;;;4.10;2.80;;;;;13.90;100867.00;;;;5012540;28;20259;-70
2022/05/25 06:53:13;;;;;;;4.50;2.70;;;;;14.00;100860.00;;;;5027299;28;20657;-70
2022/05/25 06:55:59;;;;;;;6.40;3.10;;;;;13.90;100856.00;;;;5020843;28;20958;-70
2022/05/25 06:58:46;;;;;;;5.17;2.57;;;;;14.10;100862.00;;;;5028820;28;20889;-70
2022/05/25 07:01:32;;;;;;;4.23;2.60;;;;;14.10;100857.00;;;;5024744;28;20237;-70
2022/05/25 07:04:18;;;;;;;3.50;2.13;;;;;14.20;100872.00;;;;5033874;28;20713;-69
2022/05/25 07:07:05;;;;;;;3.73;2.40;;;;;14.40;100874.00;;;;5035185;28;20737;-71
2022/05/25 07:09:53;;;;;;;4.37;2.13;;;;;14.50;100862.00;;;;5035486;28;20302;-69
2022/05/25 07:12:39;;;;;;;2.33;2.00;;;;;14.50;100866.00;;;;5029639;28;20280;-69
2022/05/25 07:15:25;;;;;;;3.47;2.00;;;;;14.60;100858.00;;;;5025784;28;20248;-69
2022/05/25 07:18:18;;;;;;;4.67;2.20;;;;;14.50;100880.00;;;;5031675;28;20260;-69
2022/05/25 07:21:07;;;;;;;3.80;2.10;;;;;14.70;100863.00;;;;5030823;28;20233;-69
2022/05/25 07:23:55;;;;;;;3.27;2.00;;;;;14.80;100872.00;;;;5034179;28;20579;-71
2022/05/25 07:26:43;;;;;;;4.33;2.03;;;;;14.80;100886.00;;;;5025008;28;20237;-69
2022/05/25 07:29:29;;;;;;;5.63;1.87;;;;;14.80;100871.00;;;;5022703;28;20265;-69
2022/05/25 07:32:16;;;;;;;3.03;1.90;;;;;14.90;100880.00;;;;5029334;28;20241;-70
2022/05/25 07:35:05;;;;;;;1.97;1.80;;;;;15.20;100880.00;;;;5017436;28;20230;-70
2022/05/25 07:37:54;;;;;;;4.23;2.10;;;;;15.20;100879.00;;;;5024421;28;20611;-69
2022/05/25 07:40:42;;;;;;;7.07;3.43;;;;;15.20;100877.00;;;;5028855;28;20891;-68
2022/05/25 07:43:33;;;;;;;4.70;2.20;;;;;15.20;100885.00;;;;5021139;28;20230;-69
2022/05/25 07:46:20;;;;;;;4.13;2.03;;;;;15.30;100887.00;;;;5027967;28;20241;-69
2022/05/25 07:49:06;;;;;;;5.77;2.40;;;;;15.40;100895.00;;;;5028375;28;20237;-69
2022/05/25 07:51:53;;;;;;;4.60;2.07;;;;;15.40;100886.00;;;;5028123;28;20237;-69
2022/05/25 07:54:41;;;;;;;2.20;1.97;;;;;15.50;100884.00;;;;5022319;28;20235;-70
2022/05/25 07:57:27;;;;;;;4.20;2.10;;;;;15.60;100885.00;;;;5020172;28;20229;-70
2022/05/25 08:00:16;;;;;;;2.77;2.00;;;;;15.50;100885.00;;;;5027545;28;20228;-70
2022/05/25 08:06:07;;;;;;;2.83;2.00;;;;;15.80;100869.00;;;;5021984;28;20295;-69
2022/05/25 08:08:55;;;;;;;3.27;1.93;;;;;15.90;100884.00;;;;5027734;28;20320;-69
2022/05/25 08:11:42;;;;;;;2.63;1.90;;;;;16.00;100883.00;;;;5021131;28;20246;-69
2022/05/25 08:14:30;;;;;;;2.70;1.80;;;;;16.20;100880.00;;;;5020317;28;20806;-69
2022/05/25 08:17:18;;;;;;;2.67;1.67;;;;;16.30;100889.00;;;;5029108;28;20647;-69
2022/05/25 08:20:06;;;;;;;2.00;1.70;;;;;16.30;100886.00;;;;5027256;28;20232;-69
2022/05/25 08:22:52;;;;;;;1.87;1.60;;;;;16.40;100900.00;;;;5027904;28;20233;-69
2022/05/25 08:25:39;;;;;;;2.53;1.63;;;;;16.60;100895.00;;;;5027709;28;20235;-70
2022/05/25 08:28:26;;;;;;;2.77;1.77;;;;;16.70;100897.00;;;;5021941;28;20357;-68
2022/05/25 08:31:12;;;;;;;2.77;1.73;;;;;17.00;100896.00;;;;5026838;28;20881;-69
2022/05/25 08:34:00;;;;;;;2.80;1.70;;;;;17.20;100883.00;;;;5027311;28;20382;-69
2022/05/25 08:36:46;;;;;;;3.40;1.70;;;;;17.20;100897.00;;;;5024310;28;20245;-70
2022/05/25 08:39:33;;;;;;;2.17;1.97;;;;;17.60;100897.00;;;;5013871;28;20241;-70
2022/05/25 08:42:22;;;;;;;1.67;1.27;;;;;17.60;100896.00;;;;5026230;28;22535;-71
2022/05/25 08:45:09;;;;;;;1.40;1.30;;;;;17.70;100895.00;;;;5027109;28;20232;-69
2022/05/25 08:47:59;;;;;;;2.13;1.80;;;;;17.80;100902.00;;;;5027299;28;20292;-69
2022/05/25 08:50:52;;;;;;;2.13;1.30;;;;;17.60;100895.00;;;;5022061;28;20443;-69
2022/05/25 08:53:40;;;;;;;3.43;1.40;;;;;17.50;100891.00;;;;5023432;28;20368;-70
2022/05/25 08:56:34;;;;;;;1.30;1.20;;;;;17.50;100876.00;;;;5027203;28;21022;-70
2022/05/25 08:59:31;;;;;;;2.97;1.50;;;;;17.70;100904.00;;;;5024324;28;20229;-70
2022/05/25 09:02:27;;;;;;;2.90;1.13;;;;;17.60;100904.00;;;;5026000;28;20300;-69
2022/05/25 09:05:21;;;;;;;1.30;1.20;;;;;17.60;100908.00;;;;5021180;28;20234;-69
2022/05/25 09:08:17;;;;;;;2.03;1.40;;;;;17.90;100895.00;;;;5019061;28;20753;-69
2022/05/25 09:11:08;;;;;;;1.93;1.30;;;;;18.10;100904.00;;;;5026556;28;20283;-68
2022/05/25 09:13:59;;;;;;;1.97;1.40;;;;;18.40;100902.00;;;;5026848;28;20241;-71
2022/05/25 09:16:50;;;;;;;1.73;1.30;;;;;18.60;100899.00;;;;5021483;28;20369;-71
2022/05/25 09:19:40;;;;;;;1.83;1.30;;;;;18.80;100903.00;;;;5020019;28;20601;-70
2022/05/25 09:22:27;;;;;;;2.37;1.77;;;;;18.90;100908.00;;;;5018513;28;20237;-73
2022/05/25 09:25:17;;;;;;;1.63;1.53;;;;;18.70;100904.00;;;;5025709;28;20392;-73
2022/05/25 09:28:07;;;;;;;4.03;1.63;;;;;18.50;100914.00;;;;5026250;28;20232;-72
2022/05/25 09:30:57;;;;;;;4.57;1.70;;;;;18.60;100906.00;;;;5026401;28;20230;-72
2022/05/25 09:33:47;;;;;;;2.30;1.50;;;;;18.60;100903.00;;;;5023170;28;20241;-72
2022/05/25 09:36:38;;;;;;;2.13;1.40;;;;;19.20;100904.00;;;;5019583;28;20833;-72
2022/05/25 09:39:27;;;;;;;2.07;1.57;;;;;19.50;100926.00;;;;5026260;28;20718;-71
2022/05/25 09:42:19;;;;;;;4.97;1.60;;;;;19.40;100912.00;;;;5026153;28;20229;-71
2022/05/25 09:45:10;;;;;;;2.20;1.30;;;;;19.50;100915.00;;;;5026164;28;20228;-70
2022/05/25 09:47:57;;;;;;;1.47;1.10;;;;;19.50;100914.00;;;;5026107;28;20245;-72
2022/05/25 09:50:46;;;;;;;2.43;1.40;;;;;19.70;100916.00;;;;5020486;28;20953;-74
2022/05/25 09:53:37;;;;;;;2.07;1.30;;;;;19.90;100916.00;;;;5022574;28;20622;-72
2022/05/25 09:56:30;;;;;;;3.03;1.50;;;;;20.20;100912.00;;;;5025944;28;20303;-71
2022/05/25 09:59:25;;;;;;;2.00;1.30;;;;;20.20;100916.00;;;;5022452;28;20238;-71
2022/05/25 10:02:25;;;;;;;1.27;1.10;;;;;20.20;100918.00;;;;5025458;28;20603;-70
2022/05/25 10:05:16;;;;;;;1.77;1.23;;;;;20.40;100908.00;;;;5025730;28;20237;-73
2022/05/25 10:08:15;;;;;;;2.00;1.20;;;;;20.30;100935.00;;;;5025590;28;20236;-70
2022/05/25 10:11:11;;;;;;;2.70;1.30;;;;;20.30;100924.00;;;;5025346;28;20602;-70
2022/05/25 10:14:16;;;;;;;1.23;1.10;;;;;20.60;100917.00;;;;5025238;28;20236;-73
2022/05/25 10:17:09;;;;;;;1.40;1.30;;;;;20.90;100914.00;;;;5025340;28;20236;-73
2022/05/25 10:19:58;;;;;;;4.17;1.20;;;;;21.10;100900.00;;;;5019076;28;20225;-72
2022/05/25 10:22:45;;;;;;;1.13;1.00;;;;;20.80;100916.00;;;;5025619;28;20277;-70
2022/05/25 10:25:40;;;;;;;2.73;1.10;;;;;21.30;100911.00;;;;5020110;28;20248;-71
2022/05/25 10:28:34;;;;;;;1.23;1.13;;;;;20.80;100914.00;;;;5024653;28;20249;-70
2022/05/25 10:37:40;;;;;;;3.33;1.20;;;;;21.40;100934.00;;;;5009650;28;20247;-69
2022/05/25 10:40:27;;;;;;;1.10;1.00;;;;;21.10;100927.00;;;;4989525;28;20730;-70
2022/05/25 10:43:17;;;;;;;1.10;1.00;;;;;20.60;100934.00;;;;5011206;28;20363;-73
2022/05/25 10:46:04;;;;;;;1.00;0.90;;;;;20.20;100920.00;;;;5022922;28;20615;-73
2022/05/25 10:48:58;;;;;;;2.60;1.30;;;;;20.10;100936.00;;;;5025326;28;20644;-74
2022/05/25 10:51:50;;;;;;;1.20;1.10;;;;;19.80;100933.00;;;;5025443;28;21117;-74
2022/05/25 10:54:50;;;;;;;1.63;0.90;;;;;19.80;100939.00;;;;5012940;28;20230;-73
2022/05/25 10:58:09;;;;;;;2.13;1.13;;;;;19.90;100927.00;;;;5010299;28;20240;-71
2022/05/25 11:01:04;;;;;;;2.40;1.60;;;;;19.80;100923.00;;;;5004338;28;20233;-71
2022/05/25 11:04:11;;;;;;;1.80;1.00;;;;;19.70;100939.00;;;;5005365;28;20238;-71
2022/05/25 11:07:17;;;;;;;1.20;1.00;;;;;19.90;100935.00;;;;5019926;28;20328;-70
2022/05/25 11:10:20;;;;;;;1.30;1.10;;;;;20.10;100937.00;;;;5024039;28;20823;-70
2022/05/25 11:13:22;;;;;;;1.90;1.00;;;;;20.60;100934.00;;;;5021634;28;20309;-71
2022/05/25 11:16:21;;;;;;;1.07;1.00;;;;;20.70;100937.00;;;;5008855;28;20327;-72
2022/05/25 11:19:27;;;;;;;1.27;1.00;;;;;20.70;100932.00;;;;5004562;28;20230;-71
2022/05/25 11:22:33;;;;;;;4.57;1.30;;;;;20.40;100929.00;;;;5023648;28;20238;-71
2022/05/25 11:25:34;;;;;;;2.67;1.40;;;;;20.70;100918.00;;;;5023438;28;20725;-72
2022/05/25 11:28:35;;;;;;;3.97;1.40;;;;;21.30;100926.00;;;;5006580;28;20493;-73
2022/05/25 11:31:32;;;;;;;1.13;1.00;;;;;21.00;100924.00;;;;5002466;28;20309;-70
2022/05/25 11:34:34;;;;;;;0.80;0.80;;;;;21.00;100915.00;;;;5003890;28;20778;-68
2022/05/25 11:37:40;;;;;;;0.80;0.80;;;;;21.30;100920.00;;;;5021145;28;20261;-71
2022/05/25 11:40:39;;;;;;;1.43;1.00;;;;;21.80;100913.00;;;;5023305;28;20256;-70
2022/05/25 11:44:00;;;;;;;0.90;0.90;;;;;22.00;100903.00;;;;5010660;28;20234;-71
2022/05/25 11:46:48;;;;;;;1.13;0.93;;;;;21.90;100912.00;;;;5000852;28;20749;-70
2022/05/25 11:50:14;;;;;;;1.03;0.90;;;;;21.80;100921.00;;;;5010046;28;20729;-69
2022/05/25 11:53:15;;;;;;;0.70;0.70;;;;;21.80;100910.00;;;;4997427;28;20246;-70
2022/05/25 11:56:16;;;;;;;1.00;0.90;;;;;21.80;100911.00;;;;5023589;28;20230;-70
2022/05/25 11:59:15;;;;;;;1.10;0.80;;;;;21.90;100908.00;;;;5020158;28;20299;-76
2022/05/25 12:02:10;;;;;;;3.00;0.90;;;;;22.10;100900.00;;;;5020525;28;20252;-72
2022/05/25 12:05:11;;;;;;;0.80;0.80;;;;;22.30;100889.00;;;;5023115;28;20305;-71
2022/05/25 12:08:10;;;;;;;0.80;0.80;;;;;22.10;100893.00;;;;5022685;28;21084;-71
2022/05/25 12:11:06;;;;;;;1.50;0.80;;;;;22.00;100904.00;;;;5022841;28;20286;-70
2022/05/25 12:14:11;;;;;;;1.10;1.10;;;;;22.00;100908.00;;;;5024092;28;20241;-71
2022/05/25 12:17:03;;;;;;;0.73;0.73;;;;;22.00;100913.00;;;;5023200;28;20796;-71
2022/05/25 12:19:53;;;;;;;1.17;0.80;;;;;22.40;100909.00;;;;5027626;28;20237;-72
2022/05/25 12:22:49;;;;;;;1.47;0.70;;;;;22.60;100909.00;;;;5023117;28;20243;-71
2022/05/25 12:25:37;;;;;;;1.70;1.00;;;;;23.20;100908.00;;;;5019740;28;20264;-71
2022/05/25 12:28:26;;;;;;;1.03;0.93;;;;;23.00;100901.00;;;;5025728;28;20236;-71
2022/05/25 12:31:17;;;;;;;0.70;0.70;;;;;22.80;100922.00;;;;5026569;28;20331;-71
2022/05/25 12:34:04;;;;;;;3.00;1.10;;;;;23.10;100908.00;;;;5027184;28;20248;-72
2022/05/25 12:36:51;;;;;;;1.00;0.90;;;;;22.90;100921.00;;;;5021687;28;20240;-71
2022/05/25 12:40:00;;;;;;;1.43;1.00;;;;;22.10;100915.00;;;;5027495;28;20338;-70
2022/05/25 12:42:47;;;;;;;0.87;0.70;;;;;21.60;100926.00;;;;5010113;28;20247;-70
2022/05/25 12:48:59;;;;;;;3.13;0.90;;;;;20.70;100914.00;;;;5027150;28;20283;-70
2022/05/25 12:51:47;;;;;;;2.03;1.10;;;;;20.50;100926.00;;;;5000859;28;20622;-70
2022/05/25 12:54:33;;;;;;;1.90;1.00;;;;;20.40;100926.00;;;;5026561;28;20343;-70
2022/05/25 12:57:25;;;;;;;1.10;1.00;;;;;21.00;100914.00;;;;5025998;28;20284;-68
2022/05/25 13:00:21;;;;;;;1.50;0.80;;;;;21.70;100922.00;;;;5022381;28;20232;-71
2022/05/25 13:03:22;;;;;;;4.03;0.93;;;;;21.60;100929.00;;;;5027165;28;20238;-72
2022/05/25 13:06:10;;;;;;;3.30;1.03;;;;;21.40;100931.00;;;;5026846;28;20235;-68
2022/05/25 13:09:01;;;;;;;0.73;0.73;;;;;21.30;100934.00;;;;5004720;28;20242;-69
2022/05/25 13:11:49;;;;;;;2.73;1.13;;;;;21.00;100934.00;;;;5000655;28;20280;-68
2022/05/25 13:14:57;;;;;;;1.27;0.83;;;;;21.30;100922.00;;;;5016233;28;20239;-69
2022/05/25 13:17:48;;;;;;;2.23;0.87;;;;;21.90;100939.00;;;;5019777;28;20237;-67
2022/05/25 13:20:59;;;;;;;0.90;0.90;;;;;21.60;100915.00;;;;5026301;28;20314;-70
2022/05/25 13:24:27;;;;;;;0.80;0.80;;;;;21.30;100924.00;;;;5019231;28;20285;-69
2022/05/25 13:27:26;;;;;;;1.53;0.93;;;;;20.80;100926.00;;;;5002766;28;20467;-68
2022/05/25 13:30:30;;;;;;;0.97;0.90;;;;;20.60;100937.00;;;;5006222;28;20304;-68
2022/05/25 13:33:24;;;;;;;1.67;1.10;;;;;20.70;100933.00;;;;5000947;28;20419;-68
2022/05/25 13:36:16;;;;;;;1.40;0.77;;;;;21.30;100928.00;;;;5007012;28;20230;-69
2022/05/25 13:39:06;;;;;;;1.17;0.73;;;;;21.30;100924.00;;;;5006773;28;20355;-69
2022/05/25 13:41:57;;;;;;;1.93;0.93;;;;;22.00;100928.00;;;;5020204;28;20233;-69
2022/05/25 13:44:47;;;;;;;1.37;0.90;;;;;23.00;100913.00;;;;5001579;28;20229;-68
2022/05/25 13:47:34;;;;;;;2.03;0.90;;;;;23.50;100917.00;;;;5006378;28;21020;-71
2022/05/25 13:50:32;;;;;;;0.80;0.80;;;;;22.80;100916.00;;;;5000548;28;20234;-70
2022/05/25 13:53:31;;;;;;;1.77;0.77;;;;;22.60;100907.00;;;;5006041;28;20240;-70
2022/05/25 13:56:21;;;;;;;1.23;0.77;;;;;23.60;100921.00;;;;5022884;28;20225;-71
2022/05/25 13:59:09;;;;;;;2.20;1.07;;;;;24.30;100907.00;;;;5022318;28;20245;-72
2022/05/25 14:02:09;;;;;;;1.57;0.90;;;;;24.80;100915.00;;;;5020488;28;20325;-71
2022/05/25 14:04:59;;;;;;;1.13;0.83;;;;;24.50;100910.00;;;;5019694;28;20298;-72
2022/05/25 14:07:46;;;;;;;5.43;1.20;;;;;23.70;100926.00;;;;5018905;28;20225;-69
2022/05/25 14:13:40;;;;;;;1.23;0.83;;;;;22.10;100922.00;;;;5025444;28;20303;-69
2022/05/25 14:16:29;;;;;;;1.50;0.87;;;;;21.80;100926.00;;;;5025269;28;20225;-70
2022/05/25 14:19:22;;;;;;;0.93;0.90;;;;;21.20;100917.00;;;;5025164;28;20229;-70
2022/05/25 14:22:10;;;;;;;1.43;0.90;;;;;21.50;100921.00;;;;5026263;28;20652;-69
2022/05/25 14:25:00;;;;;;;1.57;0.90;;;;;22.20;100916.00;;;;5019917;28;20310;-68
2022/05/25 14:27:48;;;;;;;1.67;1.00;;;;;22.30;100912.00;;;;5025768;28;20225;-69
2022/05/25 14:30:35;;;;;;;3.50;0.93;;;;;22.60;100920.00;;;;5025254;28;20229;-70